Etusivu
METAR-TAF:

METAR-TAF

Lentoasemat :

Area_Regional_Airport

South Haven, Michigan, Yhdysvallat

Leveyspiiri: 42-21-03N, Pituuspiiri: 086-15-22W, korkeus merenpinnasta: 203 m

Tämänhetkinen sää

Tämä raportti tehtiin 17 minuuttia sitten, kello 12.55 UTC
Tuuli 7 kn lännestä
Lämpötila 13°C
Kosteus 77%
Ilmanpaine 1011 hPa
Näkyvyys: 16.1 km
Hajonneita pilviä 2300 ft:n korkeudessa
Hajonneita pilviä 3500 ft:n korkeudessa
Hajonneita pilviä 4500 ft:n korkeudessa

METAR: KLWA 291255Z AUTO 26007KT 10SM BKN023 BKN035 BKN045 13/09 A2985 RMK AO2 T01310085

Aika: 09:12 (13:12 UTC)


TAF: puuttuu

Säähavainnot ja -ennusteet yli 4000 lentoasemalta (METAR- ja TAF-raportit).

Käytössä olevat sääasemat on merkitty karttaan keltaisilla ja punaisilla pisteillä.

Aseta hiiri pisteen päälle nähdäksesi sääaseman nimen.

Klikkaa sitten nähdäksesi säähavainnot ja -ennusteet.

Kartan vaihtaminen: klikkaa mustalla rastilla varustettuja vihreitä pisteitä, niin voit zoomata sisään; viivalla varustettua vihreää pistettä, niin voit zoomata ulos tai vihreitä nuolia, niin pääset viereisille kartoille.


METAR-TAF: